Time;durP1;ratioP1;P1;durP2;ratioP2;P2;SDS_P1;SDS_P2;PMS_P1;PMS_P2;Temp;Humidity;BMP_temperature;BMP_pressure;BME280_temperature;BME280_humidity;BME280_pressure;Samples;Min_cycle;Max_cycle;Signal;HPM_P1;HPM_P2
2022/07/22 00:00:25;;;;;;;21.00;7.00;;;;;;;18.49;46.77;99121.97;106063;1274;108345;-64
2022/07/22 00:03:06;;;;;;;18.00;6.70;;;;;;;18.37;46.80;99118.71;106010;1274;98090;-65
2022/07/22 00:05:36;;;;;;;21.90;6.80;;;;;;;18.24;47.00;99124.61;106097;1274;97805;-65
2022/07/22 00:08:06;;;;;;;16.70;7.00;;;;;;;18.12;47.12;99118.56;106208;1274;112068;-64
2022/07/22 00:10:36;;;;;;;18.10;7.00;;;;;;;18.07;47.25;99118.42;106168;1274;97882;-63
2022/07/22 00:13:06;;;;;;;19.30;6.80;;;;;;;18.00;47.84;99121.80;106110;1274;108929;-64
2022/07/22 00:15:36;;;;;;;17.80;6.30;;;;;;;17.98;48.16;99118.27;106033;1274;97893;-64
2022/07/22 00:18:06;;;;;;;15.30;6.30;;;;;;;18.00;48.31;99119.41;106071;1274;97933;-67
2022/07/22 00:20:37;;;;;;;17.70;6.90;;;;;;;18.06;48.46;99121.38;106046;1274;112660;-64
2022/07/22 00:23:07;;;;;;;19.40;6.80;;;;;;;18.09;47.97;99122.34;106031;1274;97822;-63
2022/07/22 00:25:37;;;;;;;14.50;5.90;;;;;;;18.00;48.09;99122.47;106055;1274;108841;-65
2022/07/22 00:28:05;;;;;;;15.00;6.20;;;;;;;17.90;48.40;99121.56;106035;1274;96944;-64
2022/07/22 00:30:35;;;;;;;17.70;6.50;;;;;;;17.79;48.45;99123.23;106065;1274;96474;-64
2022/07/22 00:33:04;;;;;;;17.40;6.60;;;;;;;17.63;48.78;99124.79;106119;1274;111528;-66
2022/07/22 00:35:32;;;;;;;18.50;6.60;;;;;;;17.48;48.94;99126.10;106153;1274;97807;-65
2022/07/22 00:38:00;;;;;;;16.70;6.10;;;;;;;17.37;49.10;99128.65;106127;1274;108440;-64
2022/07/22 00:40:29;;;;;;;20.70;6.20;;;;;;;17.33;49.37;99125.29;106143;1274;97898;-65
2022/07/22 00:43:02;;;;;;;17.10;6.50;;;;;;;17.33;49.16;99128.91;106200;1274;97978;-64
2022/07/22 00:45:30;;;;;;;17.40;6.50;;;;;;;17.28;49.22;99135.50;106156;1274;111078;-65
2022/07/22 00:48:00;;;;;;;19.60;6.70;;;;;;;17.18;49.58;99136.27;106145;1274;97898;-63
2022/07/22 00:50:31;;;;;;;16.70;6.60;;;;;;;17.09;49.87;99139.79;105971;1274;107239;-65
2022/07/22 00:53:02;;;;;;;15.10;6.00;;;;;;;17.05;50.01;99144.21;105942;1274;97774;-64
2022/07/22 00:55:32;;;;;;;15.30;6.20;;;;;;;17.01;50.03;99140.08;105967;1274;95722;-66
2022/07/22 00:58:03;;;;;;;16.20;6.20;;;;;;;16.98;50.21;99136.98;106015;1273;111217;-65
2022/07/22 01:00:33;;;;;;;15.10;6.10;;;;;;;16.94;50.36;99136.75;105962;1274;96362;-64
2022/07/22 01:03:04;;;;;;;22.50;6.60;;;;;;;16.89;50.82;99131.79;106042;1274;110412;-65
2022/07/22 01:05:32;;;;;;;17.20;6.20;;;;;;;16.82;51.21;99127.40;106155;1274;97891;-64
2022/07/22 01:08:00;;;;;;;19.60;5.90;;;;;;;16.74;51.51;99126.77;106096;1274;96582;-64
2022/07/22 01:10:28;;;;;;;16.10;6.40;;;;;;;16.62;51.46;99123.39;106119;1274;111975;-64
2022/07/22 01:12:58;;;;;;;14.90;6.10;;;;;;;16.55;51.57;99122.99;106192;1272;96324;-64
2022/07/22 01:15:27;;;;;;;20.40;6.30;;;;;;;16.48;52.01;99120.16;106176;1274;108356;-64
2022/07/22 01:17:55;;;;;;;17.00;5.90;;;;;;;16.40;52.22;99117.66;106087;1274;97888;-65
2022/07/22 01:20:25;;;;;;;20.20;7.90;;;;;;;16.35;52.39;99114.95;106195;1274;97872;-65
2022/07/22 01:22:56;;;;;;;16.20;6.30;;;;;;;16.30;52.46;99114.15;106200;1274;113545;-64
2022/07/22 01:25:24;;;;;;;16.30;6.50;;;;;;;16.28;52.87;99112.05;106240;1274;97708;-64
2022/07/22 01:27:57;;;;;;;15.60;6.20;;;;;;;16.27;53.18;99112.62;106125;1274;107502;-65
2022/07/22 01:30:25;;;;;;;14.70;5.60;;;;;;;16.28;53.25;99112.39;106066;1274;97881;-65
2022/07/22 01:32:56;;;;;;;16.80;6.20;;;;;;;16.29;53.17;99112.09;106106;1274;97875;-64
2022/07/22 01:35:24;;;;;;;16.10;6.40;;;;;;;16.32;53.30;99109.98;106104;1272;112050;-66
2022/07/22 01:37:52;;;;;;;13.20;5.40;;;;;;;16.37;53.35;99112.05;106129;1274;96432;-66
2022/07/22 01:40:23;;;;;;;16.00;6.00;;;;;;;16.39;53.33;99110.77;106074;1274;109112;-66
2022/07/22 01:42:51;;;;;;;14.60;6.00;;;;;;;16.39;53.41;99110.27;106154;1274;97845;-66
2022/07/22 01:45:21;;;;;;;19.40;6.10;;;;;;;16.39;53.28;99111.34;106210;1274;97944;-68
2022/07/22 01:47:51;;;;;;;14.10;5.50;;;;;;;16.41;53.65;99108.85;106158;1274;111959;-67
2022/07/22 01:50:22;;;;;;;17.00;5.90;;;;;;;16.43;53.90;99111.98;106343;1274;97832;-67
2022/07/22 01:52:52;;;;;;;13.40;5.40;;;;;;;16.48;53.79;99108.88;106121;1274;108270;-68
2022/07/22 01:55:20;;;;;;;17.90;5.40;;;;;;;16.52;53.87;99112.35;106119;1274;97912;-67
2022/07/22 01:57:48;;;;;;;15.30;5.30;;;;;;;16.56;53.89;99107.92;106114;1274;97944;-65
2022/07/22 02:00:22;;;;;;;13.70;5.20;;;;;;;16.60;54.07;99106.46;106140;1272;111934;-67
2022/07/22 02:02:49;;;;;;;13.30;5.10;;;;;;;16.65;54.17;99109.19;106159;1274;97908;-66
2022/07/22 02:05:20;;;;;;;9.90;4.90;;;;;;;16.69;54.19;99107.89;106098;1273;108347;-65
2022/07/22 02:07:48;;;;;;;14.80;5.20;;;;;;;16.73;53.94;99106.45;106047;1274;97879;-65
2022/07/22 02:10:20;;;;;;;12.70;4.60;;;;;;;16.76;54.12;99104.91;106090;1274;96366;-64
2022/07/22 02:12:48;;;;;;;11.10;4.70;;;;;;;16.81;54.02;99104.36;106043;1274;111978;-65
2022/07/22 02:15:16;;;;;;;11.30;4.70;;;;;;;16.86;54.35;99103.95;106184;1274;97848;-64
2022/07/22 02:17:46;;;;;;;13.70;5.30;;;;;;;16.90;54.42;99102.41;106127;1274;107865;-64
2022/07/22 02:20:14;;;;;;;15.80;4.80;;;;;;;16.94;54.18;99101.67;106061;1273;96384;-65
2022/07/22 02:22:44;;;;;;;11.10;4.60;;;;;;;16.96;54.25;99102.02;106178;1274;97781;-65
2022/07/22 02:25:14;;;;;;;13.70;5.20;;;;;;;16.96;54.09;99100.64;106081;1274;111174;-65
2022/07/22 02:27:44;;;;;;;12.00;4.90;;;;;;;16.95;54.20;99096.38;106152;1274;97908;-65
2022/07/22 02:30:14;;;;;;;14.90;5.10;;;;;;;16.96;54.18;99097.38;106054;1274;108355;-63
2022/07/22 02:32:42;;;;;;;11.70;4.90;;;;;;;16.96;54.33;99090.92;106098;1274;97844;-65
2022/07/22 02:35:10;;;;;;;12.80;4.90;;;;;;;16.95;54.33;99093.86;106119;1274;97879;-64
2022/07/22 02:37:38;;;;;;;11.80;4.70;;;;;;;16.94;54.35;99090.41;106142;1274;112178;-64
2022/07/22 02:40:10;;;;;;;9.50;4.40;;;;;;;16.92;54.58;99089.73;106067;1274;97889;-65
2022/07/22 02:42:38;;;;;;;17.30;5.10;;;;;;;16.88;54.45;99089.00;106150;1274;107395;-66
2022/07/22 02:45:09;;;;;;;13.20;4.90;;;;;;;16.85;54.58;99090.07;106031;1274;95322;-64
2022/07/22 02:47:46;;;;;;;13.80;4.60;;;;;;;16.82;54.73;99088.73;106019;1274;97804;-63
2022/07/22 02:50:14;;;;;;;14.20;4.90;;;;;;;16.75;54.84;99085.45;106006;1274;111375;-62
2022/07/22 02:52:42;;;;;;;15.80;5.10;;;;;;;16.67;55.19;99084.30;106118;1274;97909;-64
2022/07/22 02:55:12;;;;;;;14.30;5.00;;;;;;;16.56;55.14;99086.02;106120;1274;108336;-65
2022/07/22 02:57:43;;;;;;;20.50;5.20;;;;;;;16.48;55.28;99082.57;106137;1274;98462;-65
2022/07/22 03:00:15;;;;;;;12.20;4.90;;;;;;;16.40;55.43;99083.34;106143;1274;95872;-64
2022/07/22 03:02:45;;;;;;;11.80;4.70;;;;;;;16.33;55.57;99086.85;106089;1274;110744;-65
2022/07/22 03:05:13;;;;;;;14.40;5.10;;;;;;;16.31;55.82;99082.90;106112;1274;97905;-64
2022/07/22 03:07:41;;;;;;;12.20;5.00;;;;;;;16.31;55.84;99086.89;106052;1274;108419;-64
2022/07/22 03:10:11;;;;;;;15.10;4.80;;;;;;;16.30;55.92;99083.87;106065;1274;98087;-63
2022/07/22 03:12:41;;;;;;;13.20;5.10;;;;;;;16.29;55.82;99079.69;106091;1274;95172;-65
2022/07/22 03:15:13;;;;;;;12.20;5.20;;;;;;;16.27;55.86;99077.92;106068;1274;112356;-65
2022/07/22 03:17:41;;;;;;;16.80;5.70;;;;;;;16.19;56.02;99079.52;106184;1274;97878;-64
2022/07/22 03:20:13;;;;;;;12.80;4.90;;;;;;;16.13;56.12;99081.56;106133;1274;106476;-64
2022/07/22 03:22:40;;;;;;;12.90;4.80;;;;;;;16.13;56.46;99081.55;106129;1274;95264;-64
2022/07/22 03:25:08;;;;;;;12.30;4.90;;;;;;;16.19;56.64;99081.02;106082;1274;97899;-64
2022/07/22 03:27:37;;;;;;;14.20;4.70;;;;;;;16.26;56.74;99082.84;106061;1273;112003;-64
2022/07/22 03:30:09;;;;;;;13.20;5.00;;;;;;;16.34;56.74;99084.40;106161;1274;97829;-64
2022/07/22 03:32:37;;;;;;;11.60;4.40;;;;;;;16.42;56.89;99085.25;106095;1274;108256;-64
2022/07/22 03:35:08;;;;;;;9.00;4.50;;;;;;;16.50;56.78;99082.86;106092;1274;97985;-66
2022/07/22 03:37:36;;;;;;;9.40;4.30;;;;;;;16.57;56.95;99079.35;106112;1273;98007;-65
2022/07/22 03:40:10;;;;;;;13.50;4.30;;;;;;;16.63;56.72;99080.20;106105;1274;109719;-65
2022/07/22 03:42:38;;;;;;;8.30;3.90;;;;;;;16.69;56.66;99085.71;106177;1273;97857;-65
2022/07/22 03:45:15;;;;;;;10.40;4.90;;;;;;;16.75;56.92;99090.66;106133;1274;108739;-67
2022/07/22 03:47:47;;;;;;;8.80;3.90;;;;;;;16.82;56.89;99094.29;104785;1274;2949023;-64
2022/07/22 03:50:14;;;;;;;12.60;4.70;;;;;;;16.87;56.91;99092.23;106069;1274;97843;-64
2022/07/22 03:52:44;;;;;;;12.50;4.40;;;;;;;16.92;56.79;99091.14;106104;1274;111872;-64
2022/07/22 03:55:14;;;;;;;10.60;4.40;;;;;;;16.97;56.78;99093.94;106178;1274;97718;-64
2022/07/22 03:57:47;;;;;;;10.10;4.00;;;;;;;17.01;56.65;99093.58;106119;1274;108345;-64
2022/07/22 04:00:18;;;;;;;14.40;5.40;;;;;;;17.05;56.96;99092.74;106078;1274;97869;-62
2022/07/22 04:02:45;;;;;;;11.90;4.60;;;;;;;17.10;56.73;99086.02;106062;1274;97923;-61
2022/07/22 04:05:16;;;;;;;13.10;4.20;;;;;;;17.14;56.79;99082.91;106022;1274;112036;-64
2022/07/22 04:07:43;;;;;;;11.90;4.20;;;;;;;17.16;56.60;99082.56;106175;1274;97772;-64
2022/07/22 04:10:13;;;;;;;12.10;4.60;;;;;;;17.16;56.68;99080.61;106061;1274;108292;-65
2022/07/22 04:12:41;;;;;;;11.20;4.50;;;;;;;17.17;56.75;99080.29;106054;1274;97986;-65
2022/07/22 04:15:11;;;;;;;9.80;4.20;;;;;;;17.19;56.94;99079.57;106068;1274;98014;-65
2022/07/22 04:17:41;;;;;;;11.00;4.50;;;;;;;17.23;57.06;99079.14;106159;1274;110999;-66
2022/07/22 04:20:11;;;;;;;8.60;3.90;;;;;;;17.27;57.03;99075.95;106106;1274;95257;-65
2022/07/22 04:22:41;;;;;;;11.40;4.30;;;;;;;17.30;57.14;99073.86;106061;1274;108345;-66
2022/07/22 04:25:09;;;;;;;11.20;4.60;;;;;;;17.33;57.01;99075.12;106068;1274;97755;-67
2022/07/22 04:27:36;;;;;;;9.30;4.20;;;;;;;17.36;56.98;99081.07;106024;1274;98015;-65
2022/07/22 04:30:10;;;;;;;12.90;4.60;;;;;;;17.39;57.12;99080.92;106059;1274;112468;-65
2022/07/22 04:32:38;;;;;;;10.10;4.40;;;;;;;17.44;57.17;99080.49;106049;1274;95219;-66
2022/07/22 04:35:09;;;;;;;10.40;3.80;;;;;;;17.49;57.06;99081.27;106024;1274;108141;-65
2022/07/22 04:37:37;;;;;;;7.00;3.80;;;;;;;17.53;57.32;99077.88;106078;1274;95311;-67
2022/07/22 04:40:08;;;;;;;11.30;4.20;;;;;;;17.60;57.29;99078.09;106091;1274;95206;-64
2022/07/22 04:42:36;;;;;;;11.40;4.60;;;;;;;17.69;57.56;99079.95;106159;1272;111299;-63
2022/07/22 04:45:09;;;;;;;9.40;4.00;;;;;;;17.77;57.52;99082.69;106082;1274;98437;-69
2022/07/22 04:47:40;;;;;;;9.50;4.30;;;;;;;17.85;57.63;99081.30;106035;1273;108136;-68
2022/07/22 04:50:11;;;;;;;11.40;4.50;;;;;;;17.95;57.55;99080.64;106069;1274;97832;-68
2022/07/22 04:52:40;;;;;;;11.50;4.00;;;;;;;18.06;57.62;99079.42;106073;1273;95250;-67
2022/07/22 04:55:18;;;;;;;9.60;4.50;;;;;;;18.16;57.42;99076.77;106140;1274;111969;-68
2022/07/22 04:57:49;;;;;;;10.30;4.20;;;;;;;18.24;57.47;99073.76;106100;1274;97846;-69
2022/07/22 05:00:19;;;;;;;11.20;4.20;;;;;;;18.34;57.59;99075.05;106111;1274;108373;-69
2022/07/22 05:02:49;;;;;;;12.00;4.60;;;;;;;18.43;57.44;99071.59;106058;1274;97873;-70
2022/07/22 05:05:20;;;;;;;10.80;4.30;;;;;;;18.53;57.34;99069.66;106127;1274;97965;-69
2022/07/22 05:07:49;;;;;;;12.60;5.20;;;;;;;18.63;57.52;99070.11;106130;1274;112001;-69
2022/07/22 05:10:17;;;;;;;12.80;5.10;;;;;;;18.72;57.42;99071.25;106116;1274;96961;-68
2022/07/22 05:12:48;;;;;;;13.00;5.00;;;;;;;18.83;57.42;99071.33;106029;1274;108388;-67
2022/07/22 05:15:16;;;;;;;9.60;3.60;;;;;;;18.93;57.42;99070.11;106097;1274;95186;-70
2022/07/22 05:17:44;;;;;;;13.10;4.70;;;;;;;19.03;57.49;99074.23;105989;1274;97961;-66
2022/07/22 05:20:17;;;;;;;10.20;4.00;;;;;;;19.14;57.46;99076.10;106019;1274;112021;-67
2022/07/22 05:22:44;;;;;;;9.30;4.00;;;;;;;19.24;57.39;99073.45;106105;1274;97959;-67
2022/07/22 05:25:12;;;;;;;12.10;4.10;;;;;;;19.35;57.45;99077.30;106146;1273;108396;-66
2022/07/22 05:27:50;;;;;;;11.10;4.00;;;;;;;19.45;57.41;99079.09;106123;1274;95206;-67
2022/07/22 05:30:20;;;;;;;11.00;4.10;;;;;;;19.56;57.49;99076.11;106182;1273;97966;-66
2022/07/22 05:32:53;;;;;;;9.60;3.50;;;;;;;19.68;57.36;99079.64;106113;1274;111481;-67
2022/07/22 05:35:21;;;;;;;8.10;3.60;;;;;;;19.78;57.41;99077.63;106146;1274;98004;-68
2022/07/22 05:37:49;;;;;;;10.20;3.50;;;;;;;19.89;57.39;99076.96;105984;1274;108345;-65
2022/07/22 05:40:19;;;;;;;8.70;3.50;;;;;;;20.00;57.43;99075.26;105926;1274;97882;-66
2022/07/22 05:42:47;;;;;;;12.20;3.80;;;;;;;20.09;57.36;99073.52;106062;1274;95273;-65
2022/07/22 05:45:18;;;;;;;7.70;3.40;;;;;;;20.20;57.33;99081.14;106059;1274;113097;-64
2022/07/22 05:47:46;;;;;;;5.80;3.40;;;;;;;20.29;57.38;99087.99;106062;1274;98964;-65
2022/07/22 05:50:14;;;;;;;9.90;3.70;;;;;;;20.39;57.27;99090.48;106057;1274;108379;-64
2022/07/22 05:52:42;;;;;;;10.60;3.50;;;;;;;20.49;57.13;99093.32;106082;1274;98695;-64
2022/07/22 05:55:10;;;;;;;9.20;3.40;;;;;;;20.60;57.15;99093.27;106096;1274;95233;-64
2022/07/22 05:57:37;;;;;;;11.30;3.70;;;;;;;20.71;57.04;99088.66;106072;1274;112880;-64
2022/07/22 06:00:08;;;;;;;7.70;3.10;;;;;;;20.83;56.91;99083.92;106165;1274;97946;-64
2022/07/22 06:02:36;;;;;;;8.60;3.40;;;;;;;20.93;56.82;99082.17;106054;1274;106769;-64
2022/07/22 06:05:04;;;;;;;7.80;3.40;;;;;;;21.04;56.97;99076.92;107877;1273;96094;-65
2022/07/22 06:07:32;;;;;;;9.40;3.40;;;;;;;21.19;56.89;99074.84;108004;1273;95857;-64
2022/07/22 06:09:59;;;;;;;10.00;3.80;;;;;;;21.35;57.03;99074.95;107743;1274;111315;-64
2022/07/22 06:12:27;;;;;;;10.30;3.70;;;;;;;21.52;56.72;99074.47;106000;1274;97917;-64
2022/07/22 06:14:56;;;;;;;8.80;3.20;;;;;;;21.68;56.90;99070.77;107840;1273;107193;-64
2022/07/22 06:17:23;;;;;;;15.00;4.30;;;;;;;21.82;56.61;99070.14;107195;1274;97800;-64
2022/07/22 06:19:54;;;;;;;7.70;3.40;;;;;;;21.99;56.62;99072.02;106163;1274;97866;-65
2022/07/22 06:22:22;;;;;;;12.90;3.50;;;;;;;22.16;56.38;99074.97;106058;1274;111199;-64
2022/07/22 06:24:53;;;;;;;7.40;3.10;;;;;;;22.30;56.63;99072.48;106241;1274;98605;-63
2022/07/22 06:27:40;;;;;;;10.80;4.00;;;;;;;22.46;56.55;99079.11;106237;1273;108310;-65
2022/07/22 06:30:13;;;;;;;13.60;4.20;;;;;;;22.63;56.38;99077.27;106202;1274;97873;-64
2022/07/22 06:32:43;;;;;;;12.40;3.90;;;;;;;22.84;56.24;99082.06;106254;1271;98989;-64
2022/07/22 06:35:24;;;;;;;12.00;4.20;;;;;;;23.12;55.69;99085.29;106244;1273;112033;-65
2022/07/22 06:37:55;;;;;;;10.40;3.50;;;;;;;23.41;55.67;99092.80;106117;1274;95339;-64
2022/07/22 06:40:36;;;;;;;10.20;3.60;;;;;;;23.67;55.70;99095.59;106149;1274;108472;-65
2022/07/22 06:43:07;;;;;;;11.30;3.80;;;;;;;23.78;56.03;99097.64;106163;1274;98049;-66
2022/07/22 06:45:35;;;;;;;11.40;4.20;;;;;;;23.90;55.90;99092.00;106093;1273;98146;-65
2022/07/22 06:48:05;;;;;;;6.60;3.10;;;;;;;24.03;55.96;99090.91;106092;1274;112182;-63
2022/07/22 06:50:33;;;;;;;14.70;3.90;;;;;;;24.16;55.84;99094.99;106173;1273;96213;-66
2022/07/22 06:53:04;;;;;;;9.50;3.60;;;;;;;24.29;55.70;99090.30;106103;1273;107745;-65
2022/07/22 06:55:32;;;;;;;10.00;3.70;;;;;;;24.39;55.58;99086.73;106031;1274;97909;-66
2022/07/22 06:58:03;;;;;;;8.40;3.20;;;;;;;24.52;55.41;99094.35;106199;1273;97834;-66
2022/07/22 07:00:33;;;;;;;9.70;3.70;;;;;;;24.62;55.25;99093.41;106089;1274;111729;-67
2022/07/22 07:03:04;;;;;;;10.00;3.70;;;;;;;24.73;55.22;99088.95;106018;1274;97869;-65
2022/07/22 07:05:57;;;;;;;6.70;3.60;;;;;;;24.88;55.15;99090.71;105967;1274;108993;-65
2022/07/22 07:08:26;;;;;;;7.80;3.60;;;;;;;25.23;54.57;99086.23;105991;1274;98014;-64
2022/07/22 07:10:54;;;;;;;9.20;3.70;;;;;;;26.25;53.83;99082.35;106029;1274;95510;-64
2022/07/22 07:13:24;;;;;;;9.60;3.60;;;;;;;27.46;53.51;99088.36;106076;1274;112070;-64
2022/07/22 07:15:52;;;;;;;14.60;3.80;;;;;;;28.64;53.40;99085.05;106122;1274;98015;-64
2022/07/22 07:18:19;;;;;;;11.10;3.80;;;;;;;29.73;52.98;99083.02;106025;1273;108442;-65
2022/07/22 07:20:47;;;;;;;8.00;3.70;;;;;;;31.02;52.89;99082.25;106015;1274;97888;-66
2022/07/22 07:23:16;;;;;;;10.10;3.70;;;;;;;32.24;52.36;99084.20;106116;1274;96263;-66
2022/07/22 07:25:51;;;;;;;7.40;3.30;;;;;;;33.28;51.65;99089.29;106102;1274;111279;-65
2022/07/22 07:28:22;;;;;;;15.30;3.50;;;;;;;34.33;51.41;99085.23;106117;1274;98405;-65
2022/07/22 07:30:55;;;;;;;8.20;3.20;;;;;;;35.37;51.09;99081.09;106111;1274;108420;-65
2022/07/22 07:33:23;;;;;;;8.80;3.60;;;;;;;36.26;50.59;99084.70;106046;1274;98007;-66
2022/07/22 07:35:56;;;;;;;6.00;3.20;;;;;;;37.15;50.29;99087.41;105990;1274;97867;-66
2022/07/22 07:38:26;;;;;;;11.40;3.30;;;;;;;37.99;49.51;99082.67;106005;1274;111967;-65
2022/07/22 07:40:54;;;;;;;9.80;3.40;;;;;;;38.67;49.02;99083.19;106044;1274;97609;-65
2022/07/22 07:43:27;;;;;;;5.60;2.60;;;;;;;39.24;48.36;99080.27;106005;1274;108065;-66
2022/07/22 07:45:55;;;;;;;7.70;3.00;;;;;;;39.67;47.55;99083.39;106001;1274;98323;-67
2022/07/22 07:48:24;;;;;;;5.60;2.80;;;;;;;40.19;46.80;99081.70;106073;1274;95348;-65
2022/07/22 07:50:52;;;;;;;8.40;3.30;;;;;;;40.79;46.38;99087.50;106092;1273;111883;-67
2022/07/22 07:53:20;;;;;;;7.10;3.00;;;;;;;41.29;45.39;99083.75;106030;1274;98357;-67
2022/07/22 07:55:53;;;;;;;7.30;3.00;;;;;;;41.91;44.38;99086.95;106061;1273;109010;-66
2022/07/22 07:58:21;;;;;;;;;;;;;;;42.34;43.34;99083.44;106196;1273;97791;-67
2022/07/22 08:00:50;;;;;;;7.20;3.00;;;;;;;42.73;42.64;99083.54;106168;1274;97843;-66
2022/07/22 08:03:19;;;;;;;9.10;3.50;;;;;;;42.92;42.03;99086.81;106178;1274;111920;-66
2022/07/22 08:05:49;;;;;;;9.90;3.50;;;;;;;43.28;41.35;99084.06;106030;1273;95668;-65
2022/07/22 08:08:17;;;;;;;8.40;3.30;;;;;;;43.35;40.43;99083.06;106024;1274;107480;-65
2022/07/22 08:10:45;;;;;;;10.00;3.50;;;;;;;43.58;39.81;99080.06;106011;1274;95219;-65
2022/07/22 08:13:27;;;;;;;12.50;3.30;;;;;;;44.02;38.95;99079.79;106062;1274;95248;-65
2022/07/22 08:15:58;;;;;;;12.70;3.80;;;;;;;44.38;38.45;99080.95;106101;1274;112004;-65
2022/07/22 08:18:29;;;;;;;7.90;3.10;;;;;;;44.55;37.71;99079.35;106113;1273;97002;-65
2022/07/22 08:20:57;;;;;;;7.20;3.10;;;;;;;44.71;36.75;99076.44;106099;1274;108309;-64
2022/07/22 08:23:28;;;;;;;10.40;3.80;;;;;;;45.00;36.22;99074.64;106139;1274;97933;-63
2022/07/22 08:25:57;;;;;;;11.20;3.60;;;;;;;44.93;35.52;99078.00;106152;1272;97874;-66
2022/07/22 08:28:25;;;;;;;8.80;3.30;;;;;;;44.89;35.06;99081.37;106112;1274;112737;-66
2022/07/22 08:30:54;;;;;;;9.50;3.40;;;;;;;44.90;34.50;99082.16;106072;1274;97870;-65
2022/07/22 08:33:22;;;;;;;10.30;3.90;;;;;;;44.94;33.60;99085.40;106153;1274;107734;-66
2022/07/22 08:35:50;;;;;;;9.50;3.30;;;;;;;44.89;33.43;99084.17;106079;1274;97837;-65
2022/07/22 08:38:18;;;;;;;9.80;3.60;;;;;;;44.72;32.82;99081.58;106130;1274;97939;-66
2022/07/22 08:40:47;;;;;;;5.80;3.10;;;;;;;44.89;32.28;99083.63;106114;1272;111677;-66
2022/07/22 08:43:15;;;;;;;8.60;3.50;;;;;;;45.10;32.10;99087.61;106089;1274;98401;-68
2022/07/22 08:45:44;;;;;;;8.00;3.70;;;;;;;45.15;31.23;99083.81;106094;1273;107703;-68
2022/07/22 08:48:12;;;;;;;11.10;3.60;;;;;;;45.07;30.80;99083.81;106174;1273;97973;-65
2022/07/22 08:50:42;;;;;;;11.30;3.60;;;;;;;45.03;30.35;99080.64;106184;1273;97750;-67
2022/07/22 08:53:12;;;;;;;9.30;3.50;;;;;;;45.00;29.90;99077.56;106076;1274;112350;-66
2022/07/22 08:55:43;;;;;;;6.70;3.30;;;;;;;44.99;29.76;99079.36;106228;1274;97840;-66
2022/07/22 08:58:11;;;;;;;;;;;;;;;45.25;29.48;99079.52;106150;1274;107699;-67
2022/07/22 09:00:41;;;;;;;12.50;3.70;;;;;;;45.53;28.85;99074.04;105997;1274;96003;-67
2022/07/22 09:03:27;;;;;;;10.40;3.80;;;;;;;45.81;28.50;99075.27;106129;1273;96620;-65
2022/07/22 09:05:55;;;;;;;8.30;3.60;;;;;;;46.14;28.29;99075.02;106165;1274;113015;-66
2022/07/22 09:08:23;;;;;;;10.60;3.40;;;;;;;46.19;27.71;99070.06;106101;1274;97902;-66
2022/07/22 09:10:52;;;;;;;14.90;3.60;;;;;;;45.87;27.01;99064.02;106146;1273;108266;-65
2022/07/22 09:13:23;;;;;;;9.00;3.60;;;;;;;45.69;26.95;99067.45;106198;1274;98588;-66
2022/07/22 09:15:54;;;;;;;9.80;4.10;;;;;;;45.64;26.72;99063.92;106158;1274;98373;-65
2022/07/22 09:18:23;;;;;;;14.90;3.50;;;;;;;45.67;26.50;99060.67;106150;1274;111929;-67
2022/07/22 09:20:59;;;;;;;9.30;3.70;;;;;;;45.78;26.14;99059.44;106003;1274;96418;-66
2022/07/22 09:23:40;;;;;;;9.40;4.00;;;;;;;45.81;25.91;99062.13;106091;1273;107723;-67
2022/07/22 09:26:31;;;;;;;8.30;3.50;;;;;;;45.95;25.75;99058.77;106144;1274;96323;-65
2022/07/22 09:28:59;;;;;;;9.90;3.80;;;;;;;46.26;25.39;99059.02;106196;1273;95178;-66
2022/07/22 09:31:34;;;;;;;11.30;4.00;;;;;;;46.47;25.24;99056.88;106166;1274;111992;-66
2022/07/22 09:34:05;;;;;;;13.50;4.20;;;;;;;46.34;24.68;99060.23;106241;1274;95672;-66
2022/07/22 09:36:58;;;;;;;14.30;3.90;;;;;;;46.20;24.55;99064.20;106207;1274;108346;-67
2022/07/22 09:39:31;;;;;;;13.80;3.60;;;;;;;46.38;24.22;99060.67;106206;1273;95273;-68
2022/07/22 09:42:05;;;;;;;11.50;4.10;;;;;;;46.29;24.09;99059.51;106066;1274;97879;-67
2022/07/22 09:44:35;;;;;;;12.70;4.10;;;;;;;46.23;23.99;99062.63;106100;1274;111379;-66
2022/07/22 09:47:05;;;;;;;13.20;4.00;;;;;;;46.28;23.86;99059.66;106111;1274;95801;-66
2022/07/22 09:49:38;;;;;;;13.50;3.60;;;;;;;45.99;23.39;99056.05;106071;1274;108564;-67
2022/07/22 09:52:06;;;;;;;8.10;3.60;;;;;;;45.80;23.30;99055.33;106072;1274;98539;-67
2022/07/22 09:54:34;;;;;;;12.30;3.80;;;;;;;45.72;22.89;99050.31;106138;1274;97870;-67
2022/07/22 09:57:07;;;;;;;12.30;4.40;;;;;;;45.58;22.74;99047.09;106314;1262;111956;-66
2022/07/22 09:59:36;;;;;;;13.10;4.00;;;;;;;45.24;22.09;99046.27;105934;1274;95730;-66
2022/07/22 10:02:07;;;;;;;10.90;4.20;;;;;;;44.67;22.12;99047.60;106080;1274;108251;-66
2022/07/22 10:04:37;;;;;;;;;;;;;;;44.68;21.98;99046.83;106109;1274;97983;-67
2022/07/22 10:07:07;;;;;;;14.10;4.30;;;;;;;44.49;21.92;99044.88;106107;1274;97859;-66
2022/07/22 10:09:38;;;;;;;12.40;4.40;;;;;;;43.74;21.51;99041.95;106065;1274;112484;-66
2022/07/22 10:12:10;;;;;;;11.70;4.40;;;;;;;42.94;21.13;99038.98;106140;1274;98398;-65
2022/07/22 10:14:40;;;;;;;10.20;4.40;;;;;;;41.99;21.16;99036.30;106032;1275;107875;-69
2022/07/22 10:17:09;;;;;;;12.40;4.10;;;;;;;41.59;21.40;99035.26;106150;1274;97972;-66
2022/07/22 10:19:39;;;;;;;15.30;4.80;;;;;;;41.47;21.50;99035.48;106160;1274;97934;-66
2022/07/22 10:22:39;;;;;;;11.20;4.40;;;;;;;41.02;21.24;99034.96;106133;1274;111476;-66
2022/07/22 10:25:12;;;;;;;13.50;4.50;;;;;;;40.28;20.94;99027.87;106127;1274;97992;-65
2022/07/22 10:27:47;;;;;;;;;;;;;;;39.48;20.87;99026.20;106205;1274;108080;-66
2022/07/22 10:30:18;;;;;;;12.60;4.40;;;;;;;38.87;20.98;99027.02;106076;1274;97976;-66
2022/07/22 10:33:12;;;;;;;6.90;4.00;;;;;;;38.29;21.00;99029.33;106096;1274;95165;-65
2022/07/22 10:35:43;;;;;;;11.90;3.90;;;;;;;37.81;21.24;99027.67;106074;1274;111762;-64
2022/07/22 10:38:18;;;;;;;12.70;4.60;;;;;;;37.74;21.37;99028.80;106089;1274;95677;-65
2022/07/22 10:40:59;;;;;;;13.40;4.60;;;;;;;37.37;20.88;99028.25;106077;1274;107803;-66
2022/07/22 10:43:48;;;;;;;17.20;4.70;;;;;;;36.91;21.11;99030.64;106202;1274;97931;-66
2022/07/22 10:46:16;;;;;;;16.20;4.80;;;;;;;36.70;21.59;99030.09;106096;1274;95249;-66
2022/07/22 10:48:48;;;;;;;14.30;4.90;;;;;;;36.64;21.60;99024.71;106083;1274;111917;-66
2022/07/22 10:51:23;;;;;;;15.40;5.20;;;;;;;36.64;21.89;99023.83;106145;1273;98364;-67
2022/07/22 10:54:02;;;;;;;13.20;4.40;;;;;;;36.68;22.07;99022.02;106169;1274;107742;-65
2022/07/22 10:56:35;;;;;;;11.80;4.70;;;;;;;36.63;21.99;99024.27;106096;1274;98582;-67
2022/07/22 10:59:10;;;;;;;;;;;;;;;36.57;22.04;99022.74;106118;1274;95559;-65
2022/07/22 11:01:44;;;;;;;13.00;4.60;;;;;;;36.52;22.16;99020.95;106349;1265;110949;-66
2022/07/22 11:04:17;;;;;;;13.90;5.00;;;;;;;36.49;22.08;99020.95;106028;1273;98513;-66
2022/07/22 11:06:48;;;;;;;14.60;4.40;;;;;;;36.30;22.01;99020.02;106147;1275;108772;-66
2022/07/22 11:09:19;;;;;;;16.70;4.90;;;;;;;36.04;22.22;99019.13;106088;1276;97904;-67
2022/07/22 11:11:55;;;;;;;13.60;4.30;;;;;;;35.85;22.31;99020.59;106019;1276;97889;-66
2022/07/22 11:14:35;;;;;;;12.80;4.70;;;;;;;35.71;22.47;99018.20;105912;1273;111430;-65
2022/07/22 11:17:08;;;;;;;12.50;4.10;;;;;;;35.56;22.34;99015.78;105963;1273;95701;-66
2022/07/22 11:19:38;;;;;;;12.30;4.10;;;;;;;35.42;22.63;99014.67;105941;1274;108177;-66
2022/07/22 11:22:09;;;;;;;16.70;4.50;;;;;;;35.39;22.65;99012.02;105924;1273;95297;-70
2022/07/22 11:24:38;;;;;;;14.50;4.90;;;;;;;35.33;22.82;99012.84;105978;1274;96391;-67
2022/07/22 11:27:15;;;;;;;11.60;4.20;;;;;;;35.34;22.90;99009.48;106062;1274;112740;-69
2022/07/22 11:29:47;;;;;;;13.70;5.00;;;;;;;35.39;22.99;99012.84;105988;1273;97841;-67
2022/07/22 11:32:17;;;;;;;14.50;4.70;;;;;;;35.35;23.01;99010.85;105866;1274;110824;-67